Angier, North Carolina
Current Conditions -  °F | °C
As of 4:55 AM on Tuesday 21 Oct 2014 (Local Time) from KHRJ Reporting Station
Scattered Clouds Scattered Clouds  
Wind Chill: 56°   Ceiling: Unl
Heat Index: 56°   Visibility: 10mi
Dew Point: 55°   Wind: 0mph
Humidity: 99%   Direction: NA
Pressure: 29.92"   Gusts: NA
Location:  35.51°N, 78.74°W
Report Text: KHRJ 210855Z AUTO 00000KT 10SM SCT110 13/13 A2992 RMK AO2 T01320130
Loading
Personal Weather Stations






























Interactive Weather Map New forecast layout! Learn more

10-Day Weather Forecast

Advertisements
Track Severe Weather on mobile